sensor_id;sensor_type;location;lat;lon;timestamp;P1;durP1;ratioP1;P2;durP2;ratioP2
49978;SDS011;35869;50.990;6.962;2023-07-30T00:02:45;6.57;;;4.07;;
49978;SDS011;35869;50.990;6.962;2023-07-30T00:07:46;7.17;;;4.70;;
49978;SDS011;35869;50.990;6.962;2023-07-30T00:12:46;4.43;;;3.83;;
49978;SDS011;35869;50.990;6.962;2023-07-30T00:17:54;7.47;;;4.50;;
49978;SDS011;35869;50.990;6.962;2023-07-30T01:03:07;9.43;;;4.80;;
49978;SDS011;35869;50.990;6.962;2023-07-30T01:19:53;5.22;;;4.82;;
49978;SDS011;35869;50.990;6.962;2023-07-30T01:24:53;5.50;;;4.55;;
49978;SDS011;35869;50.990;6.962;2023-07-30T01:29:57;5.50;;;4.93;;
49978;SDS011;35869;50.990;6.962;2023-07-30T01:35:06;7.47;;;4.63;;
49978;SDS011;35869;50.990;6.962;2023-07-30T01:40:08;5.30;;;4.80;;
49978;SDS011;35869;50.990;6.962;2023-07-30T01:45:09;5.72;;;4.90;;
49978;SDS011;35869;50.990;6.962;2023-07-30T01:50:09;5.37;;;4.83;;
49978;SDS011;35869;50.990;6.962;2023-07-30T01:55:10;6.90;;;5.10;;
49978;SDS011;35869;50.990;6.962;2023-07-30T02:00:10;5.20;;;4.67;;
49978;SDS011;35869;50.990;6.962;2023-07-30T02:05:11;6.32;;;5.50;;
49978;SDS011;35869;50.990;6.962;2023-07-30T02:10:13;7.85;;;4.82;;
49978;SDS011;35869;50.990;6.962;2023-07-30T02:15:16;7.23;;;4.90;;
49978;SDS011;35869;50.990;6.962;2023-07-30T02:20:21;5.15;;;4.57;;
49978;SDS011;35869;50.990;6.962;2023-07-30T02:25:29;8.88;;;6.47;;
49978;SDS011;35869;50.990;6.962;2023-07-30T02:30:33;8.20;;;5.10;;
49978;SDS011;35869;50.990;6.962;2023-07-30T02:35:33;5.82;;;4.50;;
49978;SDS011;35869;50.990;6.962;2023-07-30T02:40:33;6.73;;;4.77;;
49978;SDS011;35869;50.990;6.962;2023-07-30T02:45:34;6.27;;;3.93;;
49978;SDS011;35869;50.990;6.962;2023-07-30T02:50:34;6.87;;;3.63;;
49978;SDS011;35869;50.990;6.962;2023-07-30T02:55:34;6.17;;;3.90;;
49978;SDS011;35869;50.990;6.962;2023-07-30T03:00:34;6.03;;;3.90;;
49978;SDS011;35869;50.990;6.962;2023-07-30T03:05:34;7.20;;;4.37;;
49978;SDS011;35869;50.990;6.962;2023-07-30T03:10:38;7.28;;;4.13;;
49978;SDS011;35869;50.990;6.962;2023-07-30T03:15:38;12.32;;;3.92;;
49978;SDS011;35869;50.990;6.962;2023-07-30T03:20:38;11.10;;;6.17;;
49978;SDS011;35869;50.990;6.962;2023-07-30T03:25:38;5.40;;;4.33;;
49978;SDS011;35869;50.990;6.962;2023-07-30T03:30:38;6.07;;;2.93;;
49978;SDS011;35869;50.990;6.962;2023-07-30T03:35:38;7.70;;;4.07;;
49978;SDS011;35869;50.990;6.962;2023-07-30T03:40:39;7.50;;;5.00;;
49978;SDS011;35869;50.990;6.962;2023-07-30T03:45:39;5.43;;;3.43;;
49978;SDS011;35869;50.990;6.962;2023-07-30T03:50:39;5.97;;;3.57;;
49978;SDS011;35869;50.990;6.962;2023-07-30T03:55:40;5.67;;;2.10;;
49978;SDS011;35869;50.990;6.962;2023-07-30T04:00:40;8.60;;;3.35;;
49978;SDS011;35869;50.990;6.962;2023-07-30T04:05:40;8.33;;;3.20;;
49978;SDS011;35869;50.990;6.962;2023-07-30T04:10:41;5.17;;;2.13;;
49978;SDS011;35869;50.990;6.962;2023-07-30T04:15:41;5.80;;;2.53;;
49978;SDS011;35869;50.990;6.962;2023-07-30T04:20:41;10.43;;;2.67;;
49978;SDS011;35869;50.990;6.962;2023-07-30T04:25:42;3.30;;;2.63;;
49978;SDS011;35869;50.990;6.962;2023-07-30T04:30:43;7.22;;;3.13;;
49978;SDS011;35869;50.990;6.962;2023-07-30T04:35:44;7.65;;;3.13;;
49978;SDS011;35869;50.990;6.962;2023-07-30T04:40:44;4.77;;;2.20;;
49978;SDS011;35869;50.990;6.962;2023-07-30T04:45:44;7.87;;;3.50;;
49978;SDS011;35869;50.990;6.962;2023-07-30T04:50:44;5.97;;;3.13;;
49978;SDS011;35869;50.990;6.962;2023-07-30T04:55:44;8.30;;;2.90;;
49978;SDS011;35869;50.990;6.962;2023-07-30T05:00:44;14.77;;;3.97;;
49978;SDS011;35869;50.990;6.962;2023-07-30T05:05:45;8.30;;;4.17;;
49978;SDS011;35869;50.990;6.962;2023-07-30T05:10:45;5.87;;;3.23;;
49978;SDS011;35869;50.990;6.962;2023-07-30T05:15:45;16.27;;;4.00;;
49978;SDS011;35869;50.990;6.962;2023-07-30T05:20:46;6.00;;;2.80;;
49978;SDS011;35869;50.990;6.962;2023-07-30T05:25:46;6.22;;;2.53;;
49978;SDS011;35869;50.990;6.962;2023-07-30T06:03:52;5.63;;;2.38;;
49978;SDS011;35869;50.990;6.962;2023-07-30T06:21:04;4.28;;;1.85;;
49978;SDS011;35869;50.990;6.962;2023-07-30T06:31:47;5.82;;;2.28;;
49978;SDS011;35869;50.990;6.962;2023-07-30T06:36:50;6.45;;;2.45;;
49978;SDS011;35869;50.990;6.962;2023-07-30T06:42:19;5.83;;;2.40;;
49978;SDS011;35869;50.990;6.962;2023-07-30T06:58:00;2.78;;;2.08;;
49978;SDS011;35869;50.990;6.962;2023-07-30T07:08:27;4.55;;;2.58;;
49978;SDS011;35869;50.990;6.962;2023-07-30T07:13:32;6.30;;;2.10;;
49978;SDS011;35869;50.990;6.962;2023-07-30T07:18:37;2.83;;;2.28;;
49978;SDS011;35869;50.990;6.962;2023-07-30T07:23:56;6.45;;;2.30;;
49978;SDS011;35869;50.990;6.962;2023-07-30T07:34:54;7.03;;;2.50;;
49978;SDS011;35869;50.990;6.962;2023-07-30T07:45:15;3.25;;;2.35;;
49978;SDS011;35869;50.990;6.962;2023-07-30T07:50:21;4.78;;;2.10;;
49978;SDS011;35869;50.990;6.962;2023-07-30T07:55:21;9.60;;;2.58;;
49978;SDS011;35869;50.990;6.962;2023-07-30T08:00:21;4.00;;;1.98;;
49978;SDS011;35869;50.990;6.962;2023-07-30T08:22:33;10.20;;;3.33;;
49978;SDS011;35869;50.990;6.962;2023-07-30T08:27:40;5.38;;;2.42;;
49978;SDS011;35869;50.990;6.962;2023-07-30T08:32:40;8.05;;;3.15;;
49978;SDS011;35869;50.990;6.962;2023-07-30T08:38:02;8.40;;;2.65;;
49978;SDS011;35869;50.990;6.962;2023-07-30T08:43:34;9.80;;;2.70;;
49978;SDS011;35869;50.990;6.962;2023-07-30T08:54:56;8.65;;;4.05;;
49978;SDS011;35869;50.990;6.962;2023-07-30T09:00:08;8.25;;;3.05;;
49978;SDS011;35869;50.990;6.962;2023-07-30T09:05:17;10.35;;;3.20;;
49978;SDS011;35869;50.990;6.962;2023-07-30T09:10:36;8.68;;;2.90;;
49978;SDS011;35869;50.990;6.962;2023-07-30T09:15:36;6.15;;;2.40;;
49978;SDS011;35869;50.990;6.962;2023-07-30T09:20:41;8.68;;;3.05;;
49978;SDS011;35869;50.990;6.962;2023-07-30T09:25:47;5.97;;;2.17;;
49978;SDS011;35869;50.990;6.962;2023-07-30T09:30:50;6.05;;;2.67;;
49978;SDS011;35869;50.990;6.962;2023-07-30T10:15:28;4.93;;;2.00;;
49978;SDS011;35869;50.990;6.962;2023-07-30T10:37:21;3.42;;;1.40;;
49978;SDS011;35869;50.990;6.962;2023-07-30T11:11:12;3.30;;;1.58;;
49978;SDS011;35869;50.990;6.962;2023-07-30T11:16:13;3.17;;;1.27;;
49978;SDS011;35869;50.990;6.962;2023-07-30T11:21:17;1.95;;;1.23;;
49978;SDS011;35869;50.990;6.962;2023-07-30T11:26:23;6.47;;;1.23;;
49978;SDS011;35869;50.990;6.962;2023-07-30T11:31:28;2.63;;;1.10;;
49978;SDS011;35869;50.990;6.962;2023-07-30T11:36:28;3.08;;;1.25;;
49978;SDS011;35869;50.990;6.962;2023-07-30T11:41:28;4.50;;;0.93;;
49978;SDS011;35869;50.990;6.962;2023-07-30T11:46:29;3.63;;;1.42;;
49978;SDS011;35869;50.990;6.962;2023-07-30T11:51:30;3.23;;;1.10;;
49978;SDS011;35869;50.990;6.962;2023-07-30T11:56:31;3.00;;;0.98;;
49978;SDS011;35869;50.990;6.962;2023-07-30T12:01:33;3.90;;;1.17;;
49978;SDS011;35869;50.990;6.962;2023-07-30T12:06:47;5.43;;;1.05;;
49978;SDS011;35869;50.990;6.962;2023-07-30T12:11:53;3.17;;;1.35;;
49978;SDS011;35869;50.990;6.962;2023-07-30T12:16:54;4.03;;;1.10;;
49978;SDS011;35869;50.990;6.962;2023-07-30T12:21:55;3.03;;;1.23;;
49978;SDS011;35869;50.990;6.962;2023-07-30T12:26:55;8.65;;;1.50;;
49978;SDS011;35869;50.990;6.962;2023-07-30T12:31:55;2.15;;;1.02;;
49978;SDS011;35869;50.990;6.962;2023-07-30T12:36:55;3.97;;;1.20;;
49978;SDS011;35869;50.990;6.962;2023-07-30T12:41:56;5.50;;;1.33;;
49978;SDS011;35869;50.990;6.962;2023-07-30T12:46:56;2.40;;;1.35;;
49978;SDS011;35869;50.990;6.962;2023-07-30T12:51:56;7.03;;;1.65;;
49978;SDS011;35869;50.990;6.962;2023-07-30T12:56:56;4.07;;;1.23;;
49978;SDS011;35869;50.990;6.962;2023-07-30T13:01:57;7.25;;;1.42;;
49978;SDS011;35869;50.990;6.962;2023-07-30T13:06:58;3.40;;;1.73;;
49978;SDS011;35869;50.990;6.962;2023-07-30T13:11:58;4.25;;;1.60;;
49978;SDS011;35869;50.990;6.962;2023-07-30T13:16:58;5.20;;;1.98;;
49978;SDS011;35869;50.990;6.962;2023-07-30T13:21:58;2.72;;;1.52;;
49978;SDS011;35869;50.990;6.962;2023-07-30T13:26:58;5.40;;;1.65;;
49978;SDS011;35869;50.990;6.962;2023-07-30T13:31:59;3.60;;;1.92;;
49978;SDS011;35869;50.990;6.962;2023-07-30T13:36:59;10.20;;;1.80;;
49978;SDS011;35869;50.990;6.962;2023-07-30T13:41:59;4.13;;;1.52;;
49978;SDS011;35869;50.990;6.962;2023-07-30T13:46:59;3.38;;;1.40;;
49978;SDS011;35869;50.990;6.962;2023-07-30T13:51:59;4.70;;;1.50;;
49978;SDS011;35869;50.990;6.962;2023-07-30T13:57:02;7.75;;;1.75;;
49978;SDS011;35869;50.990;6.962;2023-07-30T14:02:03;2.47;;;1.10;;
49978;SDS011;35869;50.990;6.962;2023-07-30T14:07:11;7.15;;;1.67;;
49978;SDS011;35869;50.990;6.962;2023-07-30T14:12:11;5.07;;;1.60;;
49978;SDS011;35869;50.990;6.962;2023-07-30T14:17:11;2.92;;;1.10;;
49978;SDS011;35869;50.990;6.962;2023-07-30T14:22:12;1.25;;;1.00;;
49978;SDS011;35869;50.990;6.962;2023-07-30T14:27:12;9.63;;;2.20;;
49978;SDS011;35869;50.990;6.962;2023-07-30T14:32:12;4.00;;;1.30;;
49978;SDS011;35869;50.990;6.962;2023-07-30T14:37:12;4.10;;;1.20;;
49978;SDS011;35869;50.990;6.962;2023-07-30T14:42:13;6.18;;;1.60;;
49978;SDS011;35869;50.990;6.962;2023-07-30T14:47:14;5.70;;;1.40;;
49978;SDS011;35869;50.990;6.962;2023-07-30T14:52:14;5.35;;;1.40;;
49978;SDS011;35869;50.990;6.962;2023-07-30T14:57:14;6.35;;;1.30;;
49978;SDS011;35869;50.990;6.962;2023-07-30T15:02:14;4.18;;;1.40;;
49978;SDS011;35869;50.990;6.962;2023-07-30T15:07:14;5.70;;;1.50;;
49978;SDS011;35869;50.990;6.962;2023-07-30T15:12:15;2.83;;;1.40;;
49978;SDS011;35869;50.990;6.962;2023-07-30T15:17:15;3.75;;;1.15;;
49978;SDS011;35869;50.990;6.962;2023-07-30T15:22:15;3.65;;;1.45;;
49978;SDS011;35869;50.990;6.962;2023-07-30T15:27:15;14.82;;;2.45;;
49978;SDS011;35869;50.990;6.962;2023-07-30T15:32:15;4.45;;;1.50;;
49978;SDS011;35869;50.990;6.962;2023-07-30T15:37:16;4.23;;;1.40;;
49978;SDS011;35869;50.990;6.962;2023-07-30T15:42:16;5.90;;;1.52;;
49978;SDS011;35869;50.990;6.962;2023-07-30T15:47:17;3.97;;;1.05;;
49978;SDS011;35869;50.990;6.962;2023-07-30T15:52:17;7.20;;;1.60;;
49978;SDS011;35869;50.990;6.962;2023-07-30T15:57:17;2.92;;;1.25;;
49978;SDS011;35869;50.990;6.962;2023-07-30T16:02:17;5.90;;;2.33;;
49978;SDS011;35869;50.990;6.962;2023-07-30T16:07:18;2.03;;;1.10;;
49978;SDS011;35869;50.990;6.962;2023-07-30T16:12:18;4.07;;;1.40;;
49978;SDS011;35869;50.990;6.962;2023-07-30T16:17:18;4.95;;;1.70;;
49978;SDS011;35869;50.990;6.962;2023-07-30T16:22:18;4.13;;;1.30;;
49978;SDS011;35869;50.990;6.962;2023-07-30T16:27:18;4.80;;;1.48;;
49978;SDS011;35869;50.990;6.962;2023-07-30T16:32:19;6.03;;;1.52;;
49978;SDS011;35869;50.990;6.962;2023-07-30T16:37:19;5.75;;;2.17;;
49978;SDS011;35869;50.990;6.962;2023-07-30T16:42:19;3.67;;;1.63;;
49978;SDS011;35869;50.990;6.962;2023-07-30T16:47:21;4.53;;;1.55;;
49978;SDS011;35869;50.990;6.962;2023-07-30T16:52:21;3.05;;;1.15;;
49978;SDS011;35869;50.990;6.962;2023-07-30T16:57:21;4.33;;;1.43;;
49978;SDS011;35869;50.990;6.962;2023-07-30T17:02:21;2.33;;;1.60;;
49978;SDS011;35869;50.990;6.962;2023-07-30T17:07:22;7.28;;;1.67;;
49978;SDS011;35869;50.990;6.962;2023-07-30T17:12:22;7.15;;;2.67;;
49978;SDS011;35869;50.990;6.962;2023-07-30T17:17:22;5.82;;;1.40;;
49978;SDS011;35869;50.990;6.962;2023-07-30T17:22:22;4.43;;;1.60;;
49978;SDS011;35869;50.990;6.962;2023-07-30T17:27:23;2.33;;;1.20;;
49978;SDS011;35869;50.990;6.962;2023-07-30T17:32:23;5.90;;;1.70;;
49978;SDS011;35869;50.990;6.962;2023-07-30T17:37:26;2.90;;;1.13;;
49978;SDS011;35869;50.990;6.962;2023-07-30T17:42:26;4.20;;;1.27;;
49978;SDS011;35869;50.990;6.962;2023-07-30T17:47:32;3.72;;;1.48;;
49978;SDS011;35869;50.990;6.962;2023-07-30T17:52:32;3.80;;;1.58;;
49978;SDS011;35869;50.990;6.962;2023-07-30T17:57:35;4.82;;;1.27;;
49978;SDS011;35869;50.990;6.962;2023-07-30T18:02:36;3.03;;;1.48;;
49978;SDS011;35869;50.990;6.962;2023-07-30T18:07:36;4.63;;;1.83;;
49978;SDS011;35869;50.990;6.962;2023-07-30T18:12:37;4.80;;;1.77;;
49978;SDS011;35869;50.990;6.962;2023-07-30T18:17:37;4.10;;;1.87;;
49978;SDS011;35869;50.990;6.962;2023-07-30T18:22:37;3.13;;;1.60;;
49978;SDS011;35869;50.990;6.962;2023-07-30T18:27:37;4.75;;;1.52;;
49978;SDS011;35869;50.990;6.962;2023-07-30T18:32:38;2.90;;;1.55;;
49978;SDS011;35869;50.990;6.962;2023-07-30T18:37:38;3.70;;;1.77;;
49978;SDS011;35869;50.990;6.962;2023-07-30T18:42:38;4.95;;;1.75;;
49978;SDS011;35869;50.990;6.962;2023-07-30T18:47:39;6.35;;;2.00;;
49978;SDS011;35869;50.990;6.962;2023-07-30T18:52:39;3.80;;;2.20;;
49978;SDS011;35869;50.990;6.962;2023-07-30T18:57:39;7.13;;;2.30;;
49978;SDS011;35869;50.990;6.962;2023-07-30T19:02:39;4.70;;;1.92;;
49978;SDS011;35869;50.990;6.962;2023-07-30T19:07:40;10.30;;;2.97;;
49978;SDS011;35869;50.990;6.962;2023-07-30T19:12:40;5.97;;;2.90;;
49978;SDS011;35869;50.990;6.962;2023-07-30T19:17:41;6.32;;;2.00;;
49978;SDS011;35869;50.990;6.962;2023-07-30T19:22:41;7.13;;;2.10;;
49978;SDS011;35869;50.990;6.962;2023-07-30T19:27:41;5.82;;;2.35;;
49978;SDS011;35869;50.990;6.962;2023-07-30T19:32:41;5.65;;;2.38;;
49978;SDS011;35869;50.990;6.962;2023-07-30T19:37:42;15.03;;;3.57;;
49978;SDS011;35869;50.990;6.962;2023-07-30T19:42:42;5.47;;;2.90;;
49978;SDS011;35869;50.990;6.962;2023-07-30T19:47:42;3.90;;;2.60;;
49978;SDS011;35869;50.990;6.962;2023-07-30T19:52:43;6.07;;;2.75;;
49978;SDS011;35869;50.990;6.962;2023-07-30T19:57:43;5.23;;;2.57;;
49978;SDS011;35869;50.990;6.962;2023-07-30T20:02:43;3.90;;;2.90;;
49978;SDS011;35869;50.990;6.962;2023-07-30T20:07:46;7.07;;;3.03;;
49978;SDS011;35869;50.990;6.962;2023-07-30T20:12:46;6.03;;;3.20;;
49978;SDS011;35869;50.990;6.962;2023-07-30T20:17:46;8.35;;;2.95;;
49978;SDS011;35869;50.990;6.962;2023-07-30T20:22:47;6.00;;;3.35;;
49978;SDS011;35869;50.990;6.962;2023-07-30T20:27:47;5.80;;;3.63;;
49978;SDS011;35869;50.990;6.962;2023-07-30T20:32:47;5.13;;;3.50;;
49978;SDS011;35869;50.990;6.962;2023-07-30T20:37:47;5.82;;;3.30;;
49978;SDS011;35869;50.990;6.962;2023-07-30T20:42:47;5.13;;;3.15;;
49978;SDS011;35869;50.990;6.962;2023-07-30T20:47:48;6.90;;;3.40;;
49978;SDS011;35869;50.990;6.962;2023-07-30T20:52:49;7.22;;;3.88;;
49978;SDS011;35869;50.990;6.962;2023-07-30T20:57:49;6.80;;;2.87;;
49978;SDS011;35869;50.990;6.962;2023-07-30T21:02:49;7.80;;;3.55;;
49978;SDS011;35869;50.990;6.962;2023-07-30T21:07:49;6.30;;;3.40;;
49978;SDS011;35869;50.990;6.962;2023-07-30T21:12:50;8.20;;;3.25;;
49978;SDS011;35869;50.990;6.962;2023-07-30T21:17:52;5.25;;;3.17;;
49978;SDS011;35869;50.990;6.962;2023-07-30T21:22:53;6.60;;;3.40;;
49978;SDS011;35869;50.990;6.962;2023-07-30T21:27:53;10.07;;;3.50;;
49978;SDS011;35869;50.990;6.962;2023-07-30T21:32:53;6.05;;;3.42;;
49978;SDS011;35869;50.990;6.962;2023-07-30T21:37:53;5.00;;;3.83;;
49978;SDS011;35869;50.990;6.962;2023-07-30T21:42:53;5.53;;;3.20;;
49978;SDS011;35869;50.990;6.962;2023-07-30T21:47:54;5.83;;;2.97;;
49978;SDS011;35869;50.990;6.962;2023-07-30T21:52:54;7.18;;;3.15;;
49978;SDS011;35869;50.990;6.962;2023-07-30T21:57:54;8.65;;;3.75;;
49978;SDS011;35869;50.990;6.962;2023-07-30T22:02:54;7.10;;;3.17;;
49978;SDS011;35869;50.990;6.962;2023-07-30T22:07:54;5.45;;;3.20;;
49978;SDS011;35869;50.990;6.962;2023-07-30T22:12:55;4.97;;;3.03;;
49978;SDS011;35869;50.990;6.962;2023-07-30T22:17:55;6.13;;;3.07;;
49978;SDS011;35869;50.990;6.962;2023-07-30T22:22:55;4.00;;;2.37;;
49978;SDS011;35869;50.990;6.962;2023-07-30T22:27:55;4.63;;;2.38;;
49978;SDS011;35869;50.990;6.962;2023-07-30T22:32:56;5.17;;;3.20;;
49978;SDS011;35869;50.990;6.962;2023-07-30T22:37:56;5.50;;;2.53;;
49978;SDS011;35869;50.990;6.962;2023-07-30T22:42:57;5.20;;;2.47;;
49978;SDS011;35869;50.990;6.962;2023-07-30T22:48:01;4.43;;;2.55;;
49978;SDS011;35869;50.990;6.962;2023-07-30T22:53:01;5.43;;;2.90;;
49978;SDS011;35869;50.990;6.962;2023-07-30T22:58:01;6.13;;;3.10;;
49978;SDS011;35869;50.990;6.962;2023-07-30T23:03:03;4.57;;;3.15;;
49978;SDS011;35869;50.990;6.962;2023-07-30T23:08:04;5.05;;;3.10;;
49978;SDS011;35869;50.990;6.962;2023-07-30T23:13:05;4.80;;;3.23;;
49978;SDS011;35869;50.990;6.962;2023-07-30T23:18:08;4.68;;;2.70;;
49978;SDS011;35869;50.990;6.962;2023-07-30T23:23:11;4.90;;;3.50;;
49978;SDS011;35869;50.990;6.962;2023-07-30T23:28:12;6.18;;;3.28;;
49978;SDS011;35869;50.990;6.962;2023-07-30T23:33:13;5.43;;;3.40;;
49978;SDS011;35869;50.990;6.962;2023-07-30T23:38:13;8.38;;;3.78;;
49978;SDS011;35869;50.990;6.962;2023-07-30T23:43:13;6.18;;;3.28;;
49978;SDS011;35869;50.990;6.962;2023-07-30T23:48:14;6.57;;;3.57;;
49978;SDS011;35869;50.990;6.962;2023-07-30T23:53:14;6.43;;;3.00;;
49978;SDS011;35869;50.990;6.962;2023-07-30T23:58:14;7.75;;;3.83;;
